AA2903 PAYA-PAVD
Flight info
| Callsign | AA2903 |
|---|---|
| Flight time | N/A |
| Altitude | 5500 |
| Route | UDENE3 FLIPS |
| Aircraft | BE36/L-SD3L/C |
Departure
| Time | 2026-04-25 21:37 |
|---|---|
| Airport | Yakutat Airport (PAYA) |
Arrival
| Time | N/A |
|---|---|
| Airport | Valdez Pioneer Field (PAVD) |
| Time | Latitude | Longitude | Altitude | Speed | Heading |
|---|---|---|---|---|---|
| 2026-04-25 21:35 | 59.49787 | -139.63848 | 38 ft | 0 kts | 315° |
| 2026-04-25 21:36 | 59.49788 | -139.63850 | 38 ft | 2 kts | 315° |
| 2026-04-25 21:37 | 59.49991 | -139.64255 | 36 ft | 75 kts | 314° |
| 2026-04-25 21:37 | 59.50145 | -139.64563 | 66 ft | 90 kts | 314° |
| 2026-04-25 21:37 | 59.50841 | -139.65929 | 638 ft | 100 kts | 314° |
| 2026-04-25 21:37 | 59.51361 | -139.66941 | 1085 ft | 110 kts | 307° |
| 2026-04-25 21:38 | 59.51403 | -139.68521 | 1314 ft | 130 kts | 249° |
| 2026-04-25 21:38 | 59.51256 | -139.70208 | 1511 ft | 141 kts | 278° |
| 2026-04-25 21:38 | 59.51623 | -139.72320 | 1767 ft | 149 kts | 291° |
| 2026-04-25 21:38 | 59.51867 | -139.73580 | 1910 ft | 152 kts | 290° |
| 2026-04-25 21:39 | 59.52316 | -139.75983 | 2181 ft | 154 kts | 290° |
| 2026-04-25 21:39 | 59.52746 | -139.78240 | 2427 ft | 156 kts | 291° |
| 2026-04-25 21:39 | 59.53137 | -139.80242 | 2637 ft | 156 kts | 291° |
| 2026-04-25 21:39 | 59.53446 | -139.81810 | 2810 ft | 156 kts | 291° |
| 2026-04-25 21:40 | 59.53828 | -139.83751 | 3011 ft | 156 kts | 291° |
| 2026-04-25 21:40 | 59.54023 | -139.84744 | 3108 ft | 156 kts | 291° |
| 2026-04-25 21:40 | 59.54602 | -139.87704 | 3429 ft | 155 kts | 291° |
| 2026-04-25 21:40 | 59.55055 | -139.90020 | 3668 ft | 155 kts | 291° |
| 2026-04-25 21:41 | 59.55348 | -139.91516 | 3819 ft | 154 kts | 291° |
| 2026-04-25 21:41 | 59.55800 | -139.93827 | 4070 ft | 153 kts | 291° |
| 2026-04-25 21:41 | 59.56215 | -139.95946 | 4296 ft | 153 kts | 290° |
| 2026-04-25 21:41 | 59.56481 | -139.97316 | 4438 ft | 152 kts | 290° |
| 2026-04-25 21:42 | 59.56927 | -139.99611 | 4685 ft | 151 kts | 290° |
| 2026-04-25 21:42 | 59.57284 | -140.01435 | 4871 ft | 151 kts | 290° |
| 2026-04-25 21:42 | 59.57729 | -140.03731 | 5135 ft | 150 kts | 290° |
| 2026-04-25 21:42 | 59.58121 | -140.05751 | 5347 ft | 149 kts | 290° |
| 2026-04-25 21:43 | 59.58382 | -140.07096 | 5490 ft | 149 kts | 290° |
| 2026-04-25 21:43 | 59.59198 | -140.11306 | 5863 ft | 153 kts | 290° |